New River, Virginia
Current Conditions -  °F | °C
As of 12:55 PM on Monday 24 Nov 2014 (Local Time) from KPSK Reporting Station
Clear Clear  
Wind Chill: 67°   Ceiling: Unl
Heat Index: 67°   Visibility: 10mi
Dew Point: 52°   Wind: 13mph
Humidity: 58%   Direction: 180°S
Pressure: 29.7"   Gusts: NA
Location:  37.13°N, 80.59°W
Report Text: KPSK 241755Z AUTO 18011KT 10SM CLR 19/11 A2970 RMK AO2 T01940110 10198 20123
Loading
Personal Weather Stations






























Interactive Weather Map New forecast layout! Learn more

10-Day Weather Forecast

Advertisements
Track Severe Weather on mobile